sensor_id;sensor_type;location;lat;lon;timestamp;temperature;humidity
33927;DHT22;20485;50.992;5.550;2023-04-25T00:00:21;6.60;99.90
33927;DHT22;20485;50.992;5.550;2023-04-25T00:02:47;6.50;99.90
33927;DHT22;20485;50.992;5.550;2023-04-25T00:05:13;6.40;99.90
33927;DHT22;20485;50.992;5.550;2023-04-25T00:07:40;6.40;99.90
33927;DHT22;20485;50.992;5.550;2023-04-25T00:10:08;6.40;99.90
33927;DHT22;20485;50.992;5.550;2023-04-25T00:12:34;6.30;99.90
33927;DHT22;20485;50.992;5.550;2023-04-25T00:15:01;6.30;99.90
33927;DHT22;20485;50.992;5.550;2023-04-25T00:17:27;6.30;99.90
33927;DHT22;20485;50.992;5.550;2023-04-25T00:19:53;6.30;99.90
33927;DHT22;20485;50.992;5.550;2023-04-25T00:22:19;6.30;99.90
33927;DHT22;20485;50.992;5.550;2023-04-25T00:24:44;6.40;99.90
33927;DHT22;20485;50.992;5.550;2023-04-25T00:27:10;6.40;99.90
33927;DHT22;20485;50.992;5.550;2023-04-25T00:29:36;6.40;99.90
33927;DHT22;20485;50.992;5.550;2023-04-25T00:32:02;6.40;99.90
33927;DHT22;20485;50.992;5.550;2023-04-25T00:34:27;6.50;99.90
33927;DHT22;20485;50.992;5.550;2023-04-25T00:36:53;6.50;99.90
33927;DHT22;20485;50.992;5.550;2023-04-25T00:39:19;7.90;99.90
33927;DHT22;20485;50.992;5.550;2023-04-25T00:41:45;6.50;99.90
33927;DHT22;20485;50.992;5.550;2023-04-25T00:44:11;6.50;99.90
33927;DHT22;20485;50.992;5.550;2023-04-25T00:46:38;6.60;99.90
33927;DHT22;20485;50.992;5.550;2023-04-25T00:49:04;6.60;99.90
33927;DHT22;20485;50.992;5.550;2023-04-25T00:51:30;6.60;99.90
33927;DHT22;20485;50.992;5.550;2023-04-25T00:53:58;6.60;99.90
33927;DHT22;20485;50.992;5.550;2023-04-25T00:56:24;6.60;99.90
33927;DHT22;20485;50.992;5.550;2023-04-25T00:58:53;6.60;99.90
33927;DHT22;20485;50.992;5.550;2023-04-25T01:01:21;6.60;99.90
33927;DHT22;20485;50.992;5.550;2023-04-25T01:03:47;6.60;99.90
33927;DHT22;20485;50.992;5.550;2023-04-25T01:06:13;6.70;99.90
33927;DHT22;20485;50.992;5.550;2023-04-25T01:08:42;6.70;99.90
33927;DHT22;20485;50.992;5.550;2023-04-25T01:11:08;6.90;99.90
33927;DHT22;20485;50.992;5.550;2023-04-25T01:13:34;6.70;99.90
33927;DHT22;20485;50.992;5.550;2023-04-25T01:16:01;6.60;99.90
33927;DHT22;20485;50.992;5.550;2023-04-25T01:18:27;6.70;99.90
33927;DHT22;20485;50.992;5.550;2023-04-25T01:20:53;6.60;99.90
33927;DHT22;20485;50.992;5.550;2023-04-25T01:23:22;6.60;99.90
33927;DHT22;20485;50.992;5.550;2023-04-25T01:25:49;6.60;99.90
33927;DHT22;20485;50.992;5.550;2023-04-25T01:31:11;7.70;99.90
33927;DHT22;20485;50.992;5.550;2023-04-25T01:33:37;6.50;99.90
33927;DHT22;20485;50.992;5.550;2023-04-25T01:36:03;6.50;99.90
33927;DHT22;20485;50.992;5.550;2023-04-25T01:38:29;6.40;99.90
33927;DHT22;20485;50.992;5.550;2023-04-25T01:40:56;6.50;99.90
33927;DHT22;20485;50.992;5.550;2023-04-25T01:43:22;6.50;99.90
33927;DHT22;20485;50.992;5.550;2023-04-25T01:45:48;6.50;99.90
33927;DHT22;20485;50.992;5.550;2023-04-25T01:48:14;6.50;99.90
33927;DHT22;20485;50.992;5.550;2023-04-25T01:50:41;6.50;99.90
33927;DHT22;20485;50.992;5.550;2023-04-25T01:53:09;6.40;99.90
33927;DHT22;20485;50.992;5.550;2023-04-25T01:55:35;6.40;99.90
33927;DHT22;20485;50.992;5.550;2023-04-25T01:58:02;6.40;99.90
33927;DHT22;20485;50.992;5.550;2023-04-25T02:00:28;6.40;99.90
33927;DHT22;20485;50.992;5.550;2023-04-25T02:02:58;6.40;99.90
33927;DHT22;20485;50.992;5.550;2023-04-25T02:05:23;6.40;99.90
33927;DHT22;20485;50.992;5.550;2023-04-25T02:07:49;6.40;99.90
33927;DHT22;20485;50.992;5.550;2023-04-25T02:10:15;6.40;99.90
33927;DHT22;20485;50.992;5.550;2023-04-25T02:12:40;6.40;99.90
33927;DHT22;20485;50.992;5.550;2023-04-25T02:15:06;6.40;99.90
33927;DHT22;20485;50.992;5.550;2023-04-25T02:17:32;6.40;99.90
33927;DHT22;20485;50.992;5.550;2023-04-25T02:19:58;6.30;99.90
33927;DHT22;20485;50.992;5.550;2023-04-25T02:22:24;6.30;99.90
33927;DHT22;20485;50.992;5.550;2023-04-25T02:24:52;6.20;99.90
33927;DHT22;20485;50.992;5.550;2023-04-25T02:27:18;6.20;99.90
33927;DHT22;20485;50.992;5.550;2023-04-25T02:29:43;6.20;99.90
33927;DHT22;20485;50.992;5.550;2023-04-25T02:32:09;6.20;99.90
33927;DHT22;20485;50.992;5.550;2023-04-25T02:34:35;6.20;99.90
33927;DHT22;20485;50.992;5.550;2023-04-25T02:37:00;6.20;99.90
33927;DHT22;20485;50.992;5.550;2023-04-25T02:39:26;6.20;99.90
33927;DHT22;20485;50.992;5.550;2023-04-25T02:41:52;6.10;99.90
33927;DHT22;20485;50.992;5.550;2023-04-25T02:44:18;6.10;99.90
33927;DHT22;20485;50.992;5.550;2023-04-25T02:46:44;6.10;99.90
33927;DHT22;20485;50.992;5.550;2023-04-25T02:49:09;6.10;99.90
33927;DHT22;20485;50.992;5.550;2023-04-25T02:51:36;6.00;99.90
33927;DHT22;20485;50.992;5.550;2023-04-25T02:54:02;6.00;99.90
33927;DHT22;20485;50.992;5.550;2023-04-25T02:56:28;6.00;99.90
33927;DHT22;20485;50.992;5.550;2023-04-25T02:58:54;6.10;99.90
33927;DHT22;20485;50.992;5.550;2023-04-25T03:01:19;6.10;99.90
33927;DHT22;20485;50.992;5.550;2023-04-25T03:03:45;6.10;99.90
33927;DHT22;20485;50.992;5.550;2023-04-25T03:06:11;6.00;99.90
33927;DHT22;20485;50.992;5.550;2023-04-25T03:08:37;6.00;99.90
33927;DHT22;20485;50.992;5.550;2023-04-25T03:11:03;6.00;99.90
33927;DHT22;20485;50.992;5.550;2023-04-25T03:13:28;6.00;99.90
33927;DHT22;20485;50.992;5.550;2023-04-25T03:15:55;6.00;99.90
33927;DHT22;20485;50.992;5.550;2023-04-25T03:18:21;5.90;99.90
33927;DHT22;20485;50.992;5.550;2023-04-25T03:20:46;6.00;99.90
33927;DHT22;20485;50.992;5.550;2023-04-25T03:23:12;6.00;99.90
33927;DHT22;20485;50.992;5.550;2023-04-25T03:25:38;6.00;99.90
33927;DHT22;20485;50.992;5.550;2023-04-25T03:28:03;6.00;99.90
33927;DHT22;20485;50.992;5.550;2023-04-25T03:30:32;6.00;99.90
33927;DHT22;20485;50.992;5.550;2023-04-25T03:32:58;6.00;99.90
33927;DHT22;20485;50.992;5.550;2023-04-25T03:35:24;6.00;99.90
33927;DHT22;20485;50.992;5.550;2023-04-25T03:37:50;5.90;99.90
33927;DHT22;20485;50.992;5.550;2023-04-25T03:40:17;5.90;99.90
33927;DHT22;20485;50.992;5.550;2023-04-25T03:42:42;6.00;99.90
33927;DHT22;20485;50.992;5.550;2023-04-25T03:45:08;6.00;99.90
33927;DHT22;20485;50.992;5.550;2023-04-25T03:47:35;6.00;99.90
33927;DHT22;20485;50.992;5.550;2023-04-25T03:50:00;6.00;99.90
33927;DHT22;20485;50.992;5.550;2023-04-25T03:52:27;5.90;99.90
33927;DHT22;20485;50.992;5.550;2023-04-25T03:54:53;5.90;99.90
33927;DHT22;20485;50.992;5.550;2023-04-25T03:57:19;5.90;99.90
33927;DHT22;20485;50.992;5.550;2023-04-25T03:59:44;5.90;99.90
33927;DHT22;20485;50.992;5.550;2023-04-25T04:02:10;5.90;99.90
33927;DHT22;20485;50.992;5.550;2023-04-25T04:04:36;5.90;99.90
33927;DHT22;20485;50.992;5.550;2023-04-25T04:07:02;5.90;99.90
33927;DHT22;20485;50.992;5.550;2023-04-25T04:09:28;5.90;99.90
33927;DHT22;20485;50.992;5.550;2023-04-25T04:11:54;5.90;99.90
33927;DHT22;20485;50.992;5.550;2023-04-25T04:14:19;5.80;99.90
33927;DHT22;20485;50.992;5.550;2023-04-25T04:16:45;7.00;99.90
33927;DHT22;20485;50.992;5.550;2023-04-25T04:19:11;5.70;99.90
33927;DHT22;20485;50.992;5.550;2023-04-25T04:21:36;5.80;99.90
33927;DHT22;20485;50.992;5.550;2023-04-25T04:24:02;6.00;99.90
33927;DHT22;20485;50.992;5.550;2023-04-25T04:26:28;5.70;99.90
33927;DHT22;20485;50.992;5.550;2023-04-25T04:28:54;5.70;99.90
33927;DHT22;20485;50.992;5.550;2023-04-25T04:31:21;5.70;99.90
33927;DHT22;20485;50.992;5.550;2023-04-25T04:33:47;5.60;99.90
33927;DHT22;20485;50.992;5.550;2023-04-25T04:36:13;5.60;99.90
33927;DHT22;20485;50.992;5.550;2023-04-25T04:38:39;5.60;99.90
33927;DHT22;20485;50.992;5.550;2023-04-25T04:41:05;5.70;99.90
33927;DHT22;20485;50.992;5.550;2023-04-25T04:43:31;5.70;99.90
33927;DHT22;20485;50.992;5.550;2023-04-25T04:46:02;5.60;99.90
33927;DHT22;20485;50.992;5.550;2023-04-25T04:48:31;5.60;99.90
33927;DHT22;20485;50.992;5.550;2023-04-25T04:50:59;5.70;99.90
33927;DHT22;20485;50.992;5.550;2023-04-25T04:53:25;5.70;99.90
33927;DHT22;20485;50.992;5.550;2023-04-25T04:55:51;5.70;99.90
33927;DHT22;20485;50.992;5.550;2023-04-25T04:58:17;5.70;99.90
33927;DHT22;20485;50.992;5.550;2023-04-25T05:00:42;5.70;99.90
33927;DHT22;20485;50.992;5.550;2023-04-25T05:03:08;5.70;99.90
33927;DHT22;20485;50.992;5.550;2023-04-25T05:05:34;5.70;99.90
33927;DHT22;20485;50.992;5.550;2023-04-25T05:07:59;5.70;99.90
33927;DHT22;20485;50.992;5.550;2023-04-25T05:10:25;5.80;99.90
33927;DHT22;20485;50.992;5.550;2023-04-25T05:12:51;5.70;99.90
33927;DHT22;20485;50.992;5.550;2023-04-25T05:15:17;5.70;99.90
33927;DHT22;20485;50.992;5.550;2023-04-25T05:17:42;5.80;99.90
33927;DHT22;20485;50.992;5.550;2023-04-25T05:20:08;5.90;99.90
33927;DHT22;20485;50.992;5.550;2023-04-25T05:22:35;5.90;99.90
33927;DHT22;20485;50.992;5.550;2023-04-25T05:25:01;6.00;99.90
33927;DHT22;20485;50.992;5.550;2023-04-25T05:27:26;6.00;99.90
33927;DHT22;20485;50.992;5.550;2023-04-25T05:29:52;6.00;99.90
33927;DHT22;20485;50.992;5.550;2023-04-25T05:32:18;6.00;99.90
33927;DHT22;20485;50.992;5.550;2023-04-25T05:34:43;5.90;99.90
33927;DHT22;20485;50.992;5.550;2023-04-25T05:37:09;5.90;99.90
33927;DHT22;20485;50.992;5.550;2023-04-25T05:39:35;5.90;99.90
33927;DHT22;20485;50.992;5.550;2023-04-25T05:42:01;5.90;99.90
33927;DHT22;20485;50.992;5.550;2023-04-25T05:44:27;6.10;99.90
33927;DHT22;20485;50.992;5.550;2023-04-25T05:46:53;6.20;99.90
33927;DHT22;20485;50.992;5.550;2023-04-25T05:49:19;6.20;99.90
33927;DHT22;20485;50.992;5.550;2023-04-25T05:51:44;6.20;99.90
33927;DHT22;20485;50.992;5.550;2023-04-25T05:54:10;6.10;99.90
33927;DHT22;20485;50.992;5.550;2023-04-25T05:56:36;6.20;99.90
33927;DHT22;20485;50.992;5.550;2023-04-25T05:59:01;6.30;99.90
33927;DHT22;20485;50.992;5.550;2023-04-25T06:01:27;6.50;99.90
33927;DHT22;20485;50.992;5.550;2023-04-25T06:03:53;6.40;99.90
33927;DHT22;20485;50.992;5.550;2023-04-25T06:06:19;6.40;99.90
33927;DHT22;20485;50.992;5.550;2023-04-25T06:08:44;6.40;99.90
33927;DHT22;20485;50.992;5.550;2023-04-25T06:11:10;6.50;99.90
33927;DHT22;20485;50.992;5.550;2023-04-25T06:13:36;6.50;99.90
33927;DHT22;20485;50.992;5.550;2023-04-25T06:16:02;6.50;99.90
33927;DHT22;20485;50.992;5.550;2023-04-25T06:18:27;6.50;99.90
33927;DHT22;20485;50.992;5.550;2023-04-25T06:20:53;6.60;99.90
33927;DHT22;20485;50.992;5.550;2023-04-25T06:23:19;6.70;99.90
33927;DHT22;20485;50.992;5.550;2023-04-25T06:25:44;6.70;99.90
33927;DHT22;20485;50.992;5.550;2023-04-25T06:28:10;6.70;99.90
33927;DHT22;20485;50.992;5.550;2023-04-25T06:30:36;6.70;99.90
33927;DHT22;20485;50.992;5.550;2023-04-25T06:33:01;7.20;99.90
33927;DHT22;20485;50.992;5.550;2023-04-25T06:35:27;6.80;99.90
33927;DHT22;20485;50.992;5.550;2023-04-25T06:37:52;6.80;99.90
33927;DHT22;20485;50.992;5.550;2023-04-25T06:40:18;6.80;99.90
33927;DHT22;20485;50.992;5.550;2023-04-25T06:42:44;6.80;99.90
33927;DHT22;20485;50.992;5.550;2023-04-25T06:45:10;6.80;99.90
33927;DHT22;20485;50.992;5.550;2023-04-25T06:47:36;6.90;99.90
33927;DHT22;20485;50.992;5.550;2023-04-25T06:50:02;6.90;99.90
33927;DHT22;20485;50.992;5.550;2023-04-25T06:52:28;6.90;99.90
33927;DHT22;20485;50.992;5.550;2023-04-25T06:54:54;7.00;99.90
33927;DHT22;20485;50.992;5.550;2023-04-25T06:57:19;6.90;99.90
33927;DHT22;20485;50.992;5.550;2023-04-25T06:59:45;7.00;99.90
33927;DHT22;20485;50.992;5.550;2023-04-25T07:02:11;7.10;99.90
33927;DHT22;20485;50.992;5.550;2023-04-25T07:04:36;7.10;99.90
33927;DHT22;20485;50.992;5.550;2023-04-25T07:07:02;7.10;99.90
33927;DHT22;20485;50.992;5.550;2023-04-25T07:09:29;7.10;99.90
33927;DHT22;20485;50.992;5.550;2023-04-25T07:11:55;7.20;99.90
33927;DHT22;20485;50.992;5.550;2023-04-25T07:14:22;7.20;99.90
33927;DHT22;20485;50.992;5.550;2023-04-25T07:16:47;7.10;99.90
33927;DHT22;20485;50.992;5.550;2023-04-25T07:19:13;7.20;99.90
33927;DHT22;20485;50.992;5.550;2023-04-25T07:21:39;7.20;99.90
33927;DHT22;20485;50.992;5.550;2023-04-25T07:24:05;7.30;99.90
33927;DHT22;20485;50.992;5.550;2023-04-25T07:26:31;7.50;99.90
33927;DHT22;20485;50.992;5.550;2023-04-25T07:36:37;7.70;99.90
33927;DHT22;20485;50.992;5.550;2023-04-25T07:39:04;7.70;99.90
33927;DHT22;20485;50.992;5.550;2023-04-25T07:41:29;7.80;99.90
33927;DHT22;20485;50.992;5.550;2023-04-25T07:43:57;7.80;99.90
33927;DHT22;20485;50.992;5.550;2023-04-25T07:46:22;7.80;99.90
33927;DHT22;20485;50.992;5.550;2023-04-25T07:48:48;7.90;99.90
33927;DHT22;20485;50.992;5.550;2023-04-25T07:51:14;8.10;99.90
33927;DHT22;20485;50.992;5.550;2023-04-25T07:53:39;8.20;99.90
33927;DHT22;20485;50.992;5.550;2023-04-25T07:56:06;8.40;99.90
33927;DHT22;20485;50.992;5.550;2023-04-25T07:58:32;8.40;99.90
33927;DHT22;20485;50.992;5.550;2023-04-25T08:00:57;8.50;99.90
33927;DHT22;20485;50.992;5.550;2023-04-25T08:03:23;8.30;99.90
33927;DHT22;20485;50.992;5.550;2023-04-25T08:05:49;8.40;99.90
33927;DHT22;20485;50.992;5.550;2023-04-25T08:08:14;8.30;99.90
33927;DHT22;20485;50.992;5.550;2023-04-25T08:10:41;8.30;99.90
33927;DHT22;20485;50.992;5.550;2023-04-25T08:13:07;8.30;99.90
33927;DHT22;20485;50.992;5.550;2023-04-25T08:15:33;8.20;99.90
33927;DHT22;20485;50.992;5.550;2023-04-25T08:17:58;8.20;99.90
33927;DHT22;20485;50.992;5.550;2023-04-25T08:20:24;8.50;99.90
33927;DHT22;20485;50.992;5.550;2023-04-25T08:22:50;8.70;99.90
33927;DHT22;20485;50.992;5.550;2023-04-25T08:25:16;8.80;99.90
33927;DHT22;20485;50.992;5.550;2023-04-25T08:27:41;8.80;99.90
33927;DHT22;20485;50.992;5.550;2023-04-25T08:30:07;8.90;99.90
33927;DHT22;20485;50.992;5.550;2023-04-25T08:32:34;8.70;99.90
33927;DHT22;20485;50.992;5.550;2023-04-25T08:35:00;8.90;99.90
33927;DHT22;20485;50.992;5.550;2023-04-25T08:37:25;8.70;99.90
33927;DHT22;20485;50.992;5.550;2023-04-25T08:39:51;8.70;99.90
33927;DHT22;20485;50.992;5.550;2023-04-25T08:42:19;8.70;99.90
33927;DHT22;20485;50.992;5.550;2023-04-25T08:44:48;8.50;99.90
33927;DHT22;20485;50.992;5.550;2023-04-25T08:47:14;8.30;99.90
33927;DHT22;20485;50.992;5.550;2023-04-25T08:49:40;8.10;99.90
33927;DHT22;20485;50.992;5.550;2023-04-25T08:52:09;8.00;99.90
33927;DHT22;20485;50.992;5.550;2023-04-25T08:54:37;8.00;99.90
33927;DHT22;20485;50.992;5.550;2023-04-25T08:57:03;8.00;99.90
33927;DHT22;20485;50.992;5.550;2023-04-25T08:59:30;8.10;99.90
33927;DHT22;20485;50.992;5.550;2023-04-25T09:01:57;8.20;99.90
33927;DHT22;20485;50.992;5.550;2023-04-25T09:04:22;8.30;99.90
33927;DHT22;20485;50.992;5.550;2023-04-25T09:06:48;8.60;99.90
33927;DHT22;20485;50.992;5.550;2023-04-25T09:09:14;8.60;99.90
33927;DHT22;20485;50.992;5.550;2023-04-25T09:11:40;8.80;99.90
33927;DHT22;20485;50.992;5.550;2023-04-25T09:14:13;8.80;99.90
33927;DHT22;20485;50.992;5.550;2023-04-25T09:17:11;8.90;99.90
33927;DHT22;20485;50.992;5.550;2023-04-25T09:19:38;9.20;99.90
33927;DHT22;20485;50.992;5.550;2023-04-25T09:22:06;9.20;99.90
33927;DHT22;20485;50.992;5.550;2023-04-25T09:24:32;9.30;99.90
33927;DHT22;20485;50.992;5.550;2023-04-25T09:26:58;9.20;99.90
33927;DHT22;20485;50.992;5.550;2023-04-25T09:29:34;9.20;99.90
33927;DHT22;20485;50.992;5.550;2023-04-25T09:58:03;10.20;99.90
33927;DHT22;20485;50.992;5.550;2023-04-25T10:00:31;10.40;99.90
33927;DHT22;20485;50.992;5.550;2023-04-25T10:02:57;10.40;99.90
33927;DHT22;20485;50.992;5.550;2023-04-25T10:05:26;10.40;99.90
33927;DHT22;20485;50.992;5.550;2023-04-25T10:07:53;10.10;99.90
33927;DHT22;20485;50.992;5.550;2023-04-25T10:10:19;9.70;99.90
33927;DHT22;20485;50.992;5.550;2023-04-25T10:12:51;9.30;99.90
33927;DHT22;20485;50.992;5.550;2023-04-25T10:15:17;9.00;99.90
33927;DHT22;20485;50.992;5.550;2023-04-25T10:17:43;8.70;99.90
33927;DHT22;20485;50.992;5.550;2023-04-25T10:20:10;8.50;99.90
33927;DHT22;20485;50.992;5.550;2023-04-25T10:22:42;8.40;99.90
33927;DHT22;20485;50.992;5.550;2023-04-25T10:25:10;8.30;99.90
33927;DHT22;20485;50.992;5.550;2023-04-25T10:27:36;8.20;99.90
33927;DHT22;20485;50.992;5.550;2023-04-25T10:30:09;8.20;99.90
33927;DHT22;20485;50.992;5.550;2023-04-25T10:32:39;8.20;99.90
33927;DHT22;20485;50.992;5.550;2023-04-25T10:35:14;8.30;99.90
33927;DHT22;20485;50.992;5.550;2023-04-25T10:37:57;8.40;99.90
33927;DHT22;20485;50.992;5.550;2023-04-25T10:40:24;8.30;99.90
33927;DHT22;20485;50.992;5.550;2023-04-25T10:42:52;8.40;99.90
33927;DHT22;20485;50.992;5.550;2023-04-25T10:45:18;8.40;99.90
33927;DHT22;20485;50.992;5.550;2023-04-25T10:47:45;8.60;99.90
33927;DHT22;20485;50.992;5.550;2023-04-25T10:50:11;8.60;99.90
33927;DHT22;20485;50.992;5.550;2023-04-25T10:52:39;8.60;99.90
33927;DHT22;20485;50.992;5.550;2023-04-25T10:55:08;8.50;99.90
33927;DHT22;20485;50.992;5.550;2023-04-25T10:57:42;8.60;99.90
33927;DHT22;20485;50.992;5.550;2023-04-25T11:00:17;8.70;99.90
33927;DHT22;20485;50.992;5.550;2023-04-25T11:02:43;8.80;99.90
33927;DHT22;20485;50.992;5.550;2023-04-25T11:05:18;8.90;99.90
33927;DHT22;20485;50.992;5.550;2023-04-25T11:07:54;8.90;99.90
33927;DHT22;20485;50.992;5.550;2023-04-25T11:10:31;8.90;99.90
33927;DHT22;20485;50.992;5.550;2023-04-25T11:12:58;8.80;99.90
33927;DHT22;20485;50.992;5.550;2023-04-25T11:15:24;8.80;99.90
33927;DHT22;20485;50.992;5.550;2023-04-25T11:17:54;8.90;99.90
33927;DHT22;20485;50.992;5.550;2023-04-25T11:20:21;9.00;99.90
33927;DHT22;20485;50.992;5.550;2023-04-25T11:22:48;9.00;99.90
33927;DHT22;20485;50.992;5.550;2023-04-25T11:25:14;8.90;99.90
33927;DHT22;20485;50.992;5.550;2023-04-25T11:27:54;9.00;99.90
33927;DHT22;20485;50.992;5.550;2023-04-25T11:30:20;9.10;99.90
33927;DHT22;20485;50.992;5.550;2023-04-25T11:32:47;9.20;99.90
33927;DHT22;20485;50.992;5.550;2023-04-25T11:35:13;9.50;99.90
33927;DHT22;20485;50.992;5.550;2023-04-25T11:40:56;10.10;99.90
33927;DHT22;20485;50.992;5.550;2023-04-25T11:43:22;10.10;99.90
33927;DHT22;20485;50.992;5.550;2023-04-25T11:45:51;10.00;99.90
33927;DHT22;20485;50.992;5.550;2023-04-25T11:48:18;10.10;99.90
33927;DHT22;20485;50.992;5.550;2023-04-25T11:50:44;10.20;99.90
33927;DHT22;20485;50.992;5.550;2023-04-25T11:53:11;10.30;99.90
33927;DHT22;20485;50.992;5.550;2023-04-25T11:55:37;10.60;99.90
33927;DHT22;20485;50.992;5.550;2023-04-25T11:58:04;10.40;99.90
33927;DHT22;20485;50.992;5.550;2023-04-25T12:00:31;10.60;99.90
33927;DHT22;20485;50.992;5.550;2023-04-25T12:02:57;10.90;99.90
33927;DHT22;20485;50.992;5.550;2023-04-25T12:05:26;10.90;99.90
33927;DHT22;20485;50.992;5.550;2023-04-25T12:07:52;11.20;99.90
33927;DHT22;20485;50.992;5.550;2023-04-25T12:10:20;11.10;99.90
33927;DHT22;20485;50.992;5.550;2023-04-25T12:12:47;11.40;99.90
33927;DHT22;20485;50.992;5.550;2023-04-25T12:15:17;11.40;99.90
33927;DHT22;20485;50.992;5.550;2023-04-25T12:17:51;11.50;99.90
33927;DHT22;20485;50.992;5.550;2023-04-25T12:20:21;11.60;99.90
33927;DHT22;20485;50.992;5.550;2023-04-25T12:22:51;11.30;99.90
33927;DHT22;20485;50.992;5.550;2023-04-25T12:25:39;10.80;99.90
33927;DHT22;20485;50.992;5.550;2023-04-25T12:28:15;10.40;99.90
33927;DHT22;20485;50.992;5.550;2023-04-25T12:31:01;10.10;99.90
33927;DHT22;20485;50.992;5.550;2023-04-25T12:33:30;9.70;99.90
33927;DHT22;20485;50.992;5.550;2023-04-25T12:35:56;9.30;99.90
33927;DHT22;20485;50.992;5.550;2023-04-25T12:38:27;9.10;99.90
33927;DHT22;20485;50.992;5.550;2023-04-25T12:40:54;9.00;99.90
33927;DHT22;20485;50.992;5.550;2023-04-25T12:43:20;8.90;99.90
33927;DHT22;20485;50.992;5.550;2023-04-25T12:45:51;8.80;99.90
33927;DHT22;20485;50.992;5.550;2023-04-25T12:48:17;8.90;99.90
33927;DHT22;20485;50.992;5.550;2023-04-25T12:50:43;8.90;99.90
33927;DHT22;20485;50.992;5.550;2023-04-25T12:53:09;9.10;99.90
33927;DHT22;20485;50.992;5.550;2023-04-25T12:55:35;9.30;99.90
33927;DHT22;20485;50.992;5.550;2023-04-25T12:58:01;9.30;99.90
33927;DHT22;20485;50.992;5.550;2023-04-25T13:00:27;9.40;99.90
33927;DHT22;20485;50.992;5.550;2023-04-25T13:02:52;9.50;99.90
33927;DHT22;20485;50.992;5.550;2023-04-25T13:05:18;9.80;99.90
33927;DHT22;20485;50.992;5.550;2023-04-25T13:07:44;9.90;99.90
33927;DHT22;20485;50.992;5.550;2023-04-25T13:10:10;10.10;99.90
33927;DHT22;20485;50.992;5.550;2023-04-25T13:12:36;10.30;99.90
33927;DHT22;20485;50.992;5.550;2023-04-25T13:15:02;10.30;99.90
33927;DHT22;20485;50.992;5.550;2023-04-25T13:17:27;10.50;99.90
33927;DHT22;20485;50.992;5.550;2023-04-25T13:19:53;10.60;99.90
33927;DHT22;20485;50.992;5.550;2023-04-25T13:22:19;10.90;99.90
33927;DHT22;20485;50.992;5.550;2023-04-25T13:24:46;11.30;99.90
33927;DHT22;20485;50.992;5.550;2023-04-25T13:27:12;11.10;99.90
33927;DHT22;20485;50.992;5.550;2023-04-25T13:29:38;11.30;99.90
33927;DHT22;20485;50.992;5.550;2023-04-25T13:32:06;11.70;99.90
33927;DHT22;20485;50.992;5.550;2023-04-25T13:34:32;11.60;99.90
33927;DHT22;20485;50.992;5.550;2023-04-25T13:36:58;12.00;99.90
33927;DHT22;20485;50.992;5.550;2023-04-25T13:39:24;12.00;99.90
33927;DHT22;20485;50.992;5.550;2023-04-25T13:41:50;11.90;99.90
33927;DHT22;20485;50.992;5.550;2023-04-25T13:44:16;12.30;99.90
33927;DHT22;20485;50.992;5.550;2023-04-25T13:46:42;12.00;99.90
33927;DHT22;20485;50.992;5.550;2023-04-25T13:49:07;11.30;99.90
33927;DHT22;20485;50.992;5.550;2023-04-25T13:51:33;11.00;99.90
33927;DHT22;20485;50.992;5.550;2023-04-25T13:53:59;10.80;99.90
33927;DHT22;20485;50.992;5.550;2023-04-25T13:56:25;10.50;99.90
33927;DHT22;20485;50.992;5.550;2023-04-25T13:58:51;10.30;99.90
33927;DHT22;20485;50.992;5.550;2023-04-25T14:01:19;10.20;99.90
33927;DHT22;20485;50.992;5.550;2023-04-25T14:03:46;10.00;99.90
33927;DHT22;20485;50.992;5.550;2023-04-25T14:06:12;10.00;99.90
33927;DHT22;20485;50.992;5.550;2023-04-25T14:08:38;10.20;99.90
33927;DHT22;20485;50.992;5.550;2023-04-25T14:11:05;10.30;99.90
33927;DHT22;20485;50.992;5.550;2023-04-25T14:13:31;10.50;99.90
33927;DHT22;20485;50.992;5.550;2023-04-25T14:15:57;10.70;99.90
33927;DHT22;20485;50.992;5.550;2023-04-25T14:18:22;10.50;99.90
33927;DHT22;20485;50.992;5.550;2023-04-25T14:20:48;10.60;99.90
33927;DHT22;20485;50.992;5.550;2023-04-25T14:23:14;10.70;99.90
33927;DHT22;20485;50.992;5.550;2023-04-25T14:25:40;10.80;99.90
33927;DHT22;20485;50.992;5.550;2023-04-25T14:28:07;10.80;99.90
33927;DHT22;20485;50.992;5.550;2023-04-25T14:30:33;11.00;99.90
33927;DHT22;20485;50.992;5.550;2023-04-25T14:33:01;11.00;99.90
33927;DHT22;20485;50.992;5.550;2023-04-25T14:35:27;11.10;99.90
33927;DHT22;20485;50.992;5.550;2023-04-25T14:37:53;11.50;99.90
33927;DHT22;20485;50.992;5.550;2023-04-25T14:40:19;11.60;99.90
33927;DHT22;20485;50.992;5.550;2023-04-25T14:42:48;11.70;99.90
33927;DHT22;20485;50.992;5.550;2023-04-25T14:45:14;11.60;99.90
33927;DHT22;20485;50.992;5.550;2023-04-25T14:47:39;11.20;99.90
33927;DHT22;20485;50.992;5.550;2023-04-25T14:50:06;10.70;99.90
33927;DHT22;20485;50.992;5.550;2023-04-25T14:52:34;10.60;99.90
33927;DHT22;20485;50.992;5.550;2023-04-25T14:54:59;10.20;99.90
33927;DHT22;20485;50.992;5.550;2023-04-25T14:57:30;10.20;99.90
33927;DHT22;20485;50.992;5.550;2023-04-25T14:59:56;10.10;99.90
33927;DHT22;20485;50.992;5.550;2023-04-25T15:02:23;10.10;99.90
33927;DHT22;20485;50.992;5.550;2023-04-25T15:04:48;10.00;99.90
33927;DHT22;20485;50.992;5.550;2023-04-25T15:07:14;10.10;99.90
33927;DHT22;20485;50.992;5.550;2023-04-25T15:09:40;10.20;99.90
33927;DHT22;20485;50.992;5.550;2023-04-25T15:12:06;10.40;99.90
33927;DHT22;20485;50.992;5.550;2023-04-25T15:14:33;10.50;99.90
33927;DHT22;20485;50.992;5.550;2023-04-25T15:16:59;10.40;99.90
33927;DHT22;20485;50.992;5.550;2023-04-25T15:19:25;10.50;99.90
33927;DHT22;20485;50.992;5.550;2023-04-25T15:21:51;10.40;99.90
33927;DHT22;20485;50.992;5.550;2023-04-25T15:24:17;10.80;99.90
33927;DHT22;20485;50.992;5.550;2023-04-25T15:26:43;11.50;99.90
33927;DHT22;20485;50.992;5.550;2023-04-25T15:29:10;11.80;99.90
33927;DHT22;20485;50.992;5.550;2023-04-25T15:31:37;11.20;99.90
33927;DHT22;20485;50.992;5.550;2023-04-25T15:34:02;11.20;99.90
33927;DHT22;20485;50.992;5.550;2023-04-25T15:36:29;11.80;99.90
33927;DHT22;20485;50.992;5.550;2023-04-25T15:38:57;12.70;99.90
33927;DHT22;20485;50.992;5.550;2023-04-25T15:41:23;13.20;99.90
33927;DHT22;20485;50.992;5.550;2023-04-25T15:43:52;13.80;99.90
33927;DHT22;20485;50.992;5.550;2023-04-25T15:46:19;14.40;99.90
33927;DHT22;20485;50.992;5.550;2023-04-25T15:48:44;14.30;99.30
33927;DHT22;20485;50.992;5.550;2023-04-25T15:51:10;14.30;98.80
33927;DHT22;20485;50.992;5.550;2023-04-25T15:53:36;13.50;99.10
33927;DHT22;20485;50.992;5.550;2023-04-25T15:56:02;12.80;99.80
33927;DHT22;20485;50.992;5.550;2023-04-25T15:58:29;12.20;99.90
33927;DHT22;20485;50.992;5.550;2023-04-25T16:00:55;11.80;99.90
33927;DHT22;20485;50.992;5.550;2023-04-25T16:03:21;11.20;99.90
33927;DHT22;20485;50.992;5.550;2023-04-25T16:05:48;10.90;99.90
33927;DHT22;20485;50.992;5.550;2023-04-25T16:08:14;10.70;99.90
33927;DHT22;20485;50.992;5.550;2023-04-25T16:10:39;10.60;99.90
33927;DHT22;20485;50.992;5.550;2023-04-25T16:13:05;10.90;99.90
33927;DHT22;20485;50.992;5.550;2023-04-25T16:15:31;11.70;99.90
33927;DHT22;20485;50.992;5.550;2023-04-25T16:17:56;12.40;99.90